sensor_id;sensor_type;location;lat;lon;timestamp;pressure;altitude;pressure_sealevel;temperature;humidity
78671;BME280;68277;52.724;6.516;2024-01-25T00:02:22;102511.06;;;6.87;100.00
78671;BME280;68277;52.724;6.516;2024-01-25T00:04:48;102558.78;;;7.06;100.00
78671;BME280;68277;52.724;6.516;2024-01-25T00:07:14;102554.03;;;6.86;100.00
78671;BME280;68277;52.724;6.516;2024-01-25T00:09:39;102534.31;;;6.66;100.00
78671;BME280;68277;52.724;6.516;2024-01-25T00:12:05;102521.69;;;6.50;100.00
78671;BME280;68277;52.724;6.516;2024-01-25T00:14:31;102501.16;;;6.33;100.00
78671;BME280;68277;52.724;6.516;2024-01-25T00:16:57;102569.53;;;6.73;100.00
78671;BME280;68277;52.724;6.516;2024-01-25T00:19:22;102536.56;;;6.48;100.00
78671;BME280;68277;52.724;6.516;2024-01-25T00:24:17;102558.31;;;6.41;100.00
78671;BME280;68277;52.724;6.516;2024-01-25T00:26:42;102566.25;;;6.43;100.00
78671;BME280;68277;52.724;6.516;2024-01-25T00:29:08;102534.16;;;6.18;100.00
78671;BME280;68277;52.724;6.516;2024-01-25T00:31:33;102574.06;;;6.40;100.00
78671;BME280;68277;52.724;6.516;2024-01-25T00:34:00;102572.28;;;6.39;100.00
78671;BME280;68277;52.724;6.516;2024-01-25T00:36:25;102526.97;;;6.11;100.00
78671;BME280;68277;52.724;6.516;2024-01-25T00:38:51;102603.88;;;6.40;100.00
78671;BME280;68277;52.724;6.516;2024-01-25T00:41:18;102507.78;;;5.80;100.00
78671;BME280;68277;52.724;6.516;2024-01-25T00:43:46;102564.50;;;6.06;100.00
78671;BME280;68277;52.724;6.516;2024-01-25T00:46:14;102512.94;;;5.75;100.00
78671;BME280;68277;52.724;6.516;2024-01-25T00:48:40;102537.50;;;5.77;100.00
78671;BME280;68277;52.724;6.516;2024-01-25T00:51:07;102587.97;;;5.97;100.00
78671;BME280;68277;52.724;6.516;2024-01-25T00:53:33;102568.19;;;5.78;100.00
78671;BME280;68277;52.724;6.516;2024-01-25T00:55:59;102608.97;;;5.97;100.00
78671;BME280;68277;52.724;6.516;2024-01-25T00:58:25;102595.53;;;5.85;100.00
78671;BME280;68277;52.724;6.516;2024-01-25T01:00:51;102626.38;;;5.92;100.00
78671;BME280;68277;52.724;6.516;2024-01-25T01:03:18;102565.00;;;5.56;100.00
78671;BME280;68277;52.724;6.516;2024-01-25T01:05:44;102589.69;;;5.62;100.00
78671;BME280;68277;52.724;6.516;2024-01-25T01:08:10;102599.41;;;5.66;100.00
78671;BME280;68277;52.724;6.516;2024-01-25T01:10:36;102581.59;;;5.54;100.00
78671;BME280;68277;52.724;6.516;2024-01-25T01:13:02;102633.88;;;5.78;100.00
78671;BME280;68277;52.724;6.516;2024-01-25T01:15:31;102596.44;;;5.52;100.00
78671;BME280;68277;52.724;6.516;2024-01-25T01:17:57;102587.44;;;5.44;100.00
78671;BME280;68277;52.724;6.516;2024-01-25T01:20:23;102606.38;;;5.64;100.00
78671;BME280;68277;52.724;6.516;2024-01-25T01:22:48;102590.50;;;5.60;100.00
78671;BME280;68277;52.724;6.516;2024-01-25T01:25:14;102618.09;;;5.77;100.00
78671;BME280;68277;52.724;6.516;2024-01-25T01:30:22;102600.31;;;5.68;100.00
78671;BME280;68277;52.724;6.516;2024-01-25T01:32:47;102609.19;;;5.72;100.00
78671;BME280;68277;52.724;6.516;2024-01-25T01:35:28;102618.81;;;5.71;100.00
78671;BME280;68277;52.724;6.516;2024-01-25T01:37:54;102617.75;;;5.65;100.00
78671;BME280;68277;52.724;6.516;2024-01-25T01:40:19;102625.56;;;5.62;100.00
78671;BME280;68277;52.724;6.516;2024-01-25T01:42:45;102628.19;;;5.62;100.00
78671;BME280;68277;52.724;6.516;2024-01-25T01:45:11;102641.28;;;5.60;100.00
78671;BME280;68277;52.724;6.516;2024-01-25T01:47:38;102605.59;;;5.35;100.00
78671;BME280;68277;52.724;6.516;2024-01-25T01:50:05;102581.56;;;5.20;100.00
78671;BME280;68277;52.724;6.516;2024-01-25T01:52:31;102614.34;;;5.34;100.00
78671;BME280;68277;52.724;6.516;2024-01-25T01:54:58;102625.78;;;5.38;100.00
78671;BME280;68277;52.724;6.516;2024-01-25T01:57:24;102638.13;;;5.40;100.00
78671;BME280;68277;52.724;6.516;2024-01-25T01:59:50;102624.44;;;5.21;100.00
78671;BME280;68277;52.724;6.516;2024-01-25T02:02:17;102667.09;;;5.43;100.00
78671;BME280;68277;52.724;6.516;2024-01-25T02:04:43;102610.03;;;5.07;100.00
78671;BME280;68277;52.724;6.516;2024-01-25T02:07:09;102636.63;;;5.19;100.00
78671;BME280;68277;52.724;6.516;2024-01-25T02:09:35;102648.13;;;5.22;100.00
78671;BME280;68277;52.724;6.516;2024-01-25T02:12:01;102676.47;;;5.35;100.00
78671;BME280;68277;52.724;6.516;2024-01-25T02:14:28;102627.59;;;5.09;100.00
78671;BME280;68277;52.724;6.516;2024-01-25T02:16:53;102621.28;;;5.01;100.00
78671;BME280;68277;52.724;6.516;2024-01-25T02:19:19;102619.47;;;5.00;100.00
78671;BME280;68277;52.724;6.516;2024-01-25T02:21:44;102621.16;;;4.98;100.00
78671;BME280;68277;52.724;6.516;2024-01-25T02:24:13;102636.38;;;5.10;100.00
78671;BME280;68277;52.724;6.516;2024-01-25T02:26:39;102639.03;;;5.11;100.00
78671;BME280;68277;52.724;6.516;2024-01-25T02:29:04;102662.94;;;5.20;100.00
78671;BME280;68277;52.724;6.516;2024-01-25T02:31:31;102629.06;;;5.00;100.00
78671;BME280;68277;52.724;6.516;2024-01-25T02:33:56;102655.56;;;5.09;100.00
78671;BME280;68277;52.724;6.516;2024-01-25T02:36:22;102688.38;;;5.23;100.00
78671;BME280;68277;52.724;6.516;2024-01-25T02:38:48;102663.44;;;5.09;100.00
78671;BME280;68277;52.724;6.516;2024-01-25T02:41:14;102684.88;;;5.22;100.00
78671;BME280;68277;52.724;6.516;2024-01-25T02:43:39;102618.22;;;4.88;100.00
78671;BME280;68277;52.724;6.516;2024-01-25T02:46:05;102612.84;;;4.83;100.00
78671;BME280;68277;52.724;6.516;2024-01-25T02:48:31;102635.91;;;4.95;100.00
78671;BME280;68277;52.724;6.516;2024-01-25T02:50:57;102687.63;;;5.27;100.00
78671;BME280;68277;52.724;6.516;2024-01-25T02:53:23;102676.56;;;5.09;100.00
78671;BME280;68277;52.724;6.516;2024-01-25T02:55:48;102697.91;;;5.21;100.00
78671;BME280;68277;52.724;6.516;2024-01-25T02:58:20;102648.09;;;4.93;100.00
78671;BME280;68277;52.724;6.516;2024-01-25T03:00:46;102673.91;;;5.07;100.00
78671;BME280;68277;52.724;6.516;2024-01-25T03:03:14;102645.56;;;4.94;100.00
78671;BME280;68277;52.724;6.516;2024-01-25T03:05:42;102678.09;;;5.01;100.00
78671;BME280;68277;52.724;6.516;2024-01-25T03:08:07;102688.63;;;5.02;100.00
78671;BME280;68277;52.724;6.516;2024-01-25T03:10:33;102715.22;;;5.14;100.00
78671;BME280;68277;52.724;6.516;2024-01-25T03:12:58;102708.22;;;5.13;100.00
78671;BME280;68277;52.724;6.516;2024-01-25T03:15:24;102686.72;;;4.97;100.00
78671;BME280;68277;52.724;6.516;2024-01-25T03:17:49;102605.09;;;4.58;100.00
78671;BME280;68277;52.724;6.516;2024-01-25T03:20:15;102647.53;;;4.73;100.00
78671;BME280;68277;52.724;6.516;2024-01-25T03:22:41;102658.19;;;4.79;100.00
78671;BME280;68277;52.724;6.516;2024-01-25T03:25:06;102694.72;;;5.01;100.00
78671;BME280;68277;52.724;6.516;2024-01-25T03:27:34;102600.25;;;4.42;100.00
78671;BME280;68277;52.724;6.516;2024-01-25T03:29:59;102669.38;;;4.73;100.00
78671;BME280;68277;52.724;6.516;2024-01-25T03:32:25;102716.28;;;4.91;100.00
78671;BME280;68277;52.724;6.516;2024-01-25T03:34:51;102711.69;;;4.84;100.00
78671;BME280;68277;52.724;6.516;2024-01-25T03:37:16;102658.09;;;4.48;100.00
78671;BME280;68277;52.724;6.516;2024-01-25T03:39:42;102667.91;;;4.53;100.00
78671;BME280;68277;52.724;6.516;2024-01-25T03:42:08;102659.75;;;4.44;100.00
78671;BME280;68277;52.724;6.516;2024-01-25T03:44:33;102678.50;;;4.56;100.00
78671;BME280;68277;52.724;6.516;2024-01-25T03:46:59;102638.28;;;4.29;100.00
78671;BME280;68277;52.724;6.516;2024-01-25T03:49:25;102698.81;;;4.63;100.00
78671;BME280;68277;52.724;6.516;2024-01-25T03:51:51;102701.59;;;4.69;100.00
78671;BME280;68277;52.724;6.516;2024-01-25T03:54:17;102716.44;;;4.69;100.00
78671;BME280;68277;52.724;6.516;2024-01-25T03:56:42;102654.16;;;4.34;100.00
78671;BME280;68277;52.724;6.516;2024-01-25T03:59:08;102683.34;;;4.44;100.00
78671;BME280;68277;52.724;6.516;2024-01-25T04:01:46;102695.69;;;4.48;100.00
78671;BME280;68277;52.724;6.516;2024-01-25T04:04:15;102729.41;;;4.64;100.00
78671;BME280;68277;52.724;6.516;2024-01-25T04:06:42;102731.19;;;4.64;100.00
78671;BME280;68277;52.724;6.516;2024-01-25T04:09:09;102709.66;;;4.47;100.00
78671;BME280;68277;52.724;6.516;2024-01-25T04:11:36;102696.44;;;4.44;100.00
78671;BME280;68277;52.724;6.516;2024-01-25T04:14:01;102694.75;;;4.46;100.00
78671;BME280;68277;52.724;6.516;2024-01-25T04:16:27;102708.75;;;4.47;100.00
78671;BME280;68277;52.724;6.516;2024-01-25T04:18:52;102693.69;;;4.40;100.00
78671;BME280;68277;52.724;6.516;2024-01-25T04:21:18;102714.66;;;4.40;100.00
78671;BME280;68277;52.724;6.516;2024-01-25T04:23:44;102678.94;;;4.17;100.00
78671;BME280;68277;52.724;6.516;2024-01-25T04:26:09;102699.06;;;4.18;100.00
78671;BME280;68277;52.724;6.516;2024-01-25T04:28:35;102690.94;;;4.10;100.00
78671;BME280;68277;52.724;6.516;2024-01-25T04:31:02;102750.44;;;4.39;100.00
78671;BME280;68277;52.724;6.516;2024-01-25T04:33:29;102752.97;;;4.36;100.00
78671;BME280;68277;52.724;6.516;2024-01-25T04:35:54;102713.56;;;4.08;100.00
78671;BME280;68277;52.724;6.516;2024-01-25T04:38:22;102690.44;;;3.95;100.00
78671;BME280;68277;52.724;6.516;2024-01-25T04:40:49;102636.91;;;3.62;100.00
78671;BME280;68277;52.724;6.516;2024-01-25T04:43:15;102612.09;;;3.51;100.00
78671;BME280;68277;52.724;6.516;2024-01-25T04:45:40;102640.41;;;3.62;100.00
78671;BME280;68277;52.724;6.516;2024-01-25T04:48:06;102659.22;;;3.76;100.00
78671;BME280;68277;52.724;6.516;2024-01-25T04:50:32;102722.97;;;4.01;100.00
78671;BME280;68277;52.724;6.516;2024-01-25T04:52:58;102723.06;;;4.04;100.00
78671;BME280;68277;52.724;6.516;2024-01-25T04:55:23;102674.94;;;3.76;100.00
78671;BME280;68277;52.724;6.516;2024-01-25T04:57:54;102716.56;;;3.93;100.00
78671;BME280;68277;52.724;6.516;2024-01-25T05:00:21;102642.50;;;3.47;100.00
78671;BME280;68277;52.724;6.516;2024-01-25T05:02:48;102637.06;;;3.41;100.00
78671;BME280;68277;52.724;6.516;2024-01-25T05:05:14;102724.09;;;3.84;100.00
78671;BME280;68277;52.724;6.516;2024-01-25T05:07:39;102662.69;;;3.51;100.00
78671;BME280;68277;52.724;6.516;2024-01-25T05:10:05;102636.94;;;3.38;100.00
78671;BME280;68277;52.724;6.516;2024-01-25T05:12:31;102759.84;;;4.07;100.00
78671;BME280;68277;52.724;6.516;2024-01-25T05:15:18;102642.06;;;3.35;100.00
78671;BME280;68277;52.724;6.516;2024-01-25T05:20:45;102725.84;;;3.84;100.00
78671;BME280;68277;52.724;6.516;2024-01-25T05:23:13;102634.78;;;3.26;100.00
78671;BME280;68277;52.724;6.516;2024-01-25T05:26:07;102680.19;;;3.52;100.00
78671;BME280;68277;52.724;6.516;2024-01-25T05:36:51;102709.09;;;3.55;100.00
78671;BME280;68277;52.724;6.516;2024-01-25T05:39:17;102665.41;;;3.29;100.00
78671;BME280;68277;52.724;6.516;2024-01-25T05:41:42;102713.56;;;3.58;100.00
78671;BME280;68277;52.724;6.516;2024-01-25T05:44:12;102738.38;;;3.69;100.00
78671;BME280;68277;52.724;6.516;2024-01-25T05:46:38;102651.13;;;3.21;100.00
78671;BME280;68277;52.724;6.516;2024-01-25T05:49:03;102776.91;;;3.96;100.00
78671;BME280;68277;52.724;6.516;2024-01-25T05:51:34;102771.34;;;3.87;100.00
78671;BME280;68277;52.724;6.516;2024-01-25T05:54:05;102709.72;;;3.48;100.00
78671;BME280;68277;52.724;6.516;2024-01-25T05:56:31;102733.56;;;3.56;100.00
78671;BME280;68277;52.724;6.516;2024-01-25T05:58:57;102778.03;;;3.79;100.00
78671;BME280;68277;52.724;6.516;2024-01-25T06:01:23;102723.72;;;3.49;100.00
78671;BME280;68277;52.724;6.516;2024-01-25T06:03:48;102725.19;;;3.42;100.00
78671;BME280;68277;52.724;6.516;2024-01-25T06:06:14;102716.09;;;3.32;100.00
78671;BME280;68277;52.724;6.516;2024-01-25T06:08:40;102661.53;;;2.96;100.00
78671;BME280;68277;52.724;6.516;2024-01-25T06:11:05;102717.13;;;3.36;100.00
78671;BME280;68277;52.724;6.516;2024-01-25T06:13:31;102798.78;;;3.73;100.00
78671;BME280;68277;52.724;6.516;2024-01-25T06:15:57;102674.56;;;2.94;100.00
78671;BME280;68277;52.724;6.516;2024-01-25T06:18:23;102817.88;;;3.71;100.00
78671;BME280;68277;52.724;6.516;2024-01-25T06:20:49;102753.63;;;3.33;100.00
78671;BME280;68277;52.724;6.516;2024-01-25T06:23:15;102772.25;;;3.40;100.00
78671;BME280;68277;52.724;6.516;2024-01-25T06:25:41;102682.94;;;2.86;100.00
78671;BME280;68277;52.724;6.516;2024-01-25T06:28:07;102765.72;;;3.29;100.00
78671;BME280;68277;52.724;6.516;2024-01-25T06:30:32;102731.69;;;3.06;100.00
78671;BME280;68277;52.724;6.516;2024-01-25T06:32:58;102700.34;;;2.85;100.00
78671;BME280;68277;52.724;6.516;2024-01-25T06:35:23;102773.75;;;3.34;100.00
78671;BME280;68277;52.724;6.516;2024-01-25T06:37:49;102676.38;;;2.73;100.00
78671;BME280;68277;52.724;6.516;2024-01-25T06:40:15;102747.56;;;3.10;100.00
78671;BME280;68277;52.724;6.516;2024-01-25T06:42:41;102771.41;;;3.18;100.00
78671;BME280;68277;52.724;6.516;2024-01-25T06:45:08;102767.94;;;3.19;100.00
78671;BME280;68277;52.724;6.516;2024-01-25T06:47:34;102683.78;;;2.62;100.00
78671;BME280;68277;52.724;6.516;2024-01-25T06:50:00;102742.78;;;3.00;100.00
78671;BME280;68277;52.724;6.516;2024-01-25T06:52:26;102742.63;;;2.96;100.00
78671;BME280;68277;52.724;6.516;2024-01-25T06:54:52;102718.44;;;2.79;100.00
78671;BME280;68277;52.724;6.516;2024-01-25T06:57:18;102759.25;;;2.98;100.00
78671;BME280;68277;52.724;6.516;2024-01-25T06:59:43;102701.13;;;2.60;100.00
78671;BME280;68277;52.724;6.516;2024-01-25T07:02:09;102685.69;;;2.44;100.00
78671;BME280;68277;52.724;6.516;2024-01-25T07:04:35;102772.09;;;2.92;100.00
78671;BME280;68277;52.724;6.516;2024-01-25T07:07:03;102840.75;;;3.30;100.00
78671;BME280;68277;52.724;6.516;2024-01-25T07:09:29;102806.09;;;3.14;100.00
78671;BME280;68277;52.724;6.516;2024-01-25T07:11:54;102806.81;;;3.10;100.00
78671;BME280;68277;52.724;6.516;2024-01-25T07:14:20;102803.25;;;3.08;100.00
78671;BME280;68277;52.724;6.516;2024-01-25T07:16:45;102836.22;;;3.25;100.00
78671;BME280;68277;52.724;6.516;2024-01-25T07:19:11;102845.22;;;3.33;100.00
78671;BME280;68277;52.724;6.516;2024-01-25T07:21:36;102827.28;;;3.20;100.00
78671;BME280;68277;52.724;6.516;2024-01-25T07:24:03;102853.03;;;3.31;100.00
78671;BME280;68277;52.724;6.516;2024-01-25T07:26:31;102813.84;;;3.11;100.00
78671;BME280;68277;52.724;6.516;2024-01-25T07:28:57;102761.19;;;2.81;100.00
78671;BME280;68277;52.724;6.516;2024-01-25T07:31:25;102837.91;;;3.24;100.00
78671;BME280;68277;52.724;6.516;2024-01-25T07:33:51;102793.28;;;2.99;100.00
78671;BME280;68277;52.724;6.516;2024-01-25T07:36:17;102770.63;;;2.98;100.00
78671;BME280;68277;52.724;6.516;2024-01-25T07:38:45;102693.28;;;2.60;100.00
78671;BME280;68277;52.724;6.516;2024-01-25T07:41:15;102761.06;;;2.99;100.00
78671;BME280;68277;52.724;6.516;2024-01-25T07:43:41;102796.06;;;3.24;100.00
78671;BME280;68277;52.724;6.516;2024-01-25T07:46:07;102788.84;;;3.19;100.00
78671;BME280;68277;52.724;6.516;2024-01-25T07:48:33;102788.25;;;3.26;100.00
78671;BME280;68277;52.724;6.516;2024-01-25T07:50:58;102759.72;;;3.10;100.00
78671;BME280;68277;52.724;6.516;2024-01-25T07:53:24;102705.41;;;2.81;100.00
78671;BME280;68277;52.724;6.516;2024-01-25T07:55:50;102728.75;;;2.98;100.00
78671;BME280;68277;52.724;6.516;2024-01-25T07:58:16;102800.13;;;3.40;100.00
78671;BME280;68277;52.724;6.516;2024-01-25T08:00:44;102812.78;;;3.52;100.00
78671;BME280;68277;52.724;6.516;2024-01-25T08:03:11;102779.19;;;3.40;100.00
78671;BME280;68277;52.724;6.516;2024-01-25T08:05:36;102800.59;;;3.52;100.00
78671;BME280;68277;52.724;6.516;2024-01-25T08:08:02;102799.09;;;3.59;100.00
78671;BME280;68277;52.724;6.516;2024-01-25T08:10:28;102788.75;;;3.62;100.00
78671;BME280;68277;52.724;6.516;2024-01-25T08:12:54;102788.63;;;3.59;100.00
78671;BME280;68277;52.724;6.516;2024-01-25T08:15:20;102804.00;;;3.73;100.00
78671;BME280;68277;52.724;6.516;2024-01-25T08:17:45;102769.53;;;3.61;100.00
78671;BME280;68277;52.724;6.516;2024-01-25T08:20:11;102705.25;;;3.22;100.00
78671;BME280;68277;52.724;6.516;2024-01-25T08:22:40;102764.28;;;3.61;100.00
78671;BME280;68277;52.724;6.516;2024-01-25T08:25:06;102765.31;;;3.65;100.00
78671;BME280;68277;52.724;6.516;2024-01-25T08:27:33;102807.97;;;3.86;100.00
78671;BME280;68277;52.724;6.516;2024-01-25T08:29:58;102820.34;;;3.90;100.00
78671;BME280;68277;52.724;6.516;2024-01-25T08:32:24;102797.22;;;3.78;100.00
78671;BME280;68277;52.724;6.516;2024-01-25T08:34:49;102799.72;;;3.75;100.00
78671;BME280;68277;52.724;6.516;2024-01-25T08:37:15;102811.47;;;3.86;100.00
78671;BME280;68277;52.724;6.516;2024-01-25T08:39:40;102856.28;;;4.18;100.00
78671;BME280;68277;52.724;6.516;2024-01-25T08:42:06;102824.03;;;3.95;100.00
78671;BME280;68277;52.724;6.516;2024-01-25T08:44:32;102796.59;;;3.85;100.00
78671;BME280;68277;52.724;6.516;2024-01-25T08:46:58;102832.94;;;4.00;100.00
78671;BME280;68277;52.724;6.516;2024-01-25T08:49:23;102849.94;;;4.11;100.00
78671;BME280;68277;52.724;6.516;2024-01-25T08:51:49;102841.16;;;4.10;100.00
78671;BME280;68277;52.724;6.516;2024-01-25T08:54:15;102828.81;;;4.06;100.00
78671;BME280;68277;52.724;6.516;2024-01-25T08:56:41;102835.31;;;4.18;100.00
78671;BME280;68277;52.724;6.516;2024-01-25T08:59:06;102868.28;;;4.36;100.00
78671;BME280;68277;52.724;6.516;2024-01-25T09:01:32;102819.38;;;4.11;100.00
78671;BME280;68277;52.724;6.516;2024-01-25T09:03:58;102822.22;;;4.18;100.00
78671;BME280;68277;52.724;6.516;2024-01-25T09:06:29;102898.19;;;4.66;100.00
78671;BME280;68277;52.724;6.516;2024-01-25T09:08:55;102903.63;;;4.71;100.00
78671;BME280;68277;52.724;6.516;2024-01-25T09:11:21;102830.72;;;4.36;100.00
78671;BME280;68277;52.724;6.516;2024-01-25T09:13:47;102897.75;;;4.78;100.00
78671;BME280;68277;52.724;6.516;2024-01-25T09:16:13;102872.09;;;4.69;100.00
78671;BME280;68277;52.724;6.516;2024-01-25T09:18:39;102843.72;;;4.58;100.00
78671;BME280;68277;52.724;6.516;2024-01-25T09:21:04;102874.28;;;4.82;100.00
78671;BME280;68277;52.724;6.516;2024-01-25T09:23:30;102824.75;;;4.66;100.00
78671;BME280;68277;52.724;6.516;2024-01-25T09:25:56;102868.72;;;4.99;100.00
78671;BME280;68277;52.724;6.516;2024-01-25T09:28:21;102825.28;;;4.81;100.00
78671;BME280;68277;52.724;6.516;2024-01-25T09:30:47;102855.84;;;5.06;100.00
78671;BME280;68277;52.724;6.516;2024-01-25T09:33:14;102855.13;;;5.12;100.00
78671;BME280;68277;52.724;6.516;2024-01-25T09:35:39;102891.00;;;5.39;100.00
78671;BME280;68277;52.724;6.516;2024-01-25T09:38:05;102805.38;;;4.88;100.00
78671;BME280;68277;52.724;6.516;2024-01-25T09:40:31;102884.00;;;5.38;100.00
78671;BME280;68277;52.724;6.516;2024-01-25T09:42:58;102831.19;;;5.01;100.00
78671;BME280;68277;52.724;6.516;2024-01-25T09:45:24;102775.16;;;4.72;100.00
78671;BME280;68277;52.724;6.516;2024-01-25T09:50:24;102822.50;;;5.04;100.00
78671;BME280;68277;52.724;6.516;2024-01-25T09:52:54;102832.28;;;5.09;100.00
78671;BME280;68277;52.724;6.516;2024-01-25T09:55:26;102840.38;;;5.15;100.00
78671;BME280;68277;52.724;6.516;2024-01-25T09:57:55;102905.41;;;5.52;100.00
78671;BME280;68277;52.724;6.516;2024-01-25T10:00:24;102902.91;;;5.55;100.00
78671;BME280;68277;52.724;6.516;2024-01-25T10:02:50;102870.25;;;5.47;100.00
78671;BME280;68277;52.724;6.516;2024-01-25T10:05:17;102833.09;;;5.35;100.00
78671;BME280;68277;52.724;6.516;2024-01-25T10:07:44;102832.66;;;5.48;100.00
78671;BME280;68277;52.724;6.516;2024-01-25T10:10:11;102880.88;;;5.80;100.00
78671;BME280;68277;52.724;6.516;2024-01-25T10:12:40;102828.50;;;5.56;100.00
78671;BME280;68277;52.724;6.516;2024-01-25T10:15:07;102882.28;;;5.97;100.00
78671;BME280;68277;52.724;6.516;2024-01-25T10:17:32;102817.69;;;5.75;100.00
78671;BME280;68277;52.724;6.516;2024-01-25T10:19:58;102817.16;;;5.87;100.00
78671;BME280;68277;52.724;6.516;2024-01-25T10:22:24;102866.34;;;6.22;100.00
78671;BME280;68277;52.724;6.516;2024-01-25T10:24:50;102870.00;;;6.27;100.00
78671;BME280;68277;52.724;6.516;2024-01-25T10:27:16;102867.56;;;6.33;100.00
78671;BME280;68277;52.724;6.516;2024-01-25T10:29:42;102834.53;;;6.11;100.00
78671;BME280;68277;52.724;6.516;2024-01-25T10:32:08;102816.84;;;6.06;100.00
78671;BME280;68277;52.724;6.516;2024-01-25T10:34:35;102834.78;;;6.22;100.00
78671;BME280;68277;52.724;6.516;2024-01-25T10:37:13;102851.84;;;6.36;100.00
78671;BME280;68277;52.724;6.516;2024-01-25T10:39:39;102856.34;;;6.40;100.00
78671;BME280;68277;52.724;6.516;2024-01-25T10:42:06;102851.91;;;6.38;100.00
78671;BME280;68277;52.724;6.516;2024-01-25T10:44:32;102855.59;;;6.46;100.00
78671;BME280;68277;52.724;6.516;2024-01-25T10:47:01;102869.84;;;6.54;100.00
78671;BME280;68277;52.724;6.516;2024-01-25T10:49:27;102861.84;;;6.49;100.00
78671;BME280;68277;52.724;6.516;2024-01-25T10:51:54;102850.16;;;6.38;100.00
78671;BME280;68277;52.724;6.516;2024-01-25T10:54:20;102818.03;;;6.17;100.00
78671;BME280;68277;52.724;6.516;2024-01-25T10:56:47;102843.09;;;6.36;100.00
78671;BME280;68277;52.724;6.516;2024-01-25T10:59:13;102868.97;;;6.53;100.00
78671;BME280;68277;52.724;6.516;2024-01-25T11:01:44;102845.94;;;6.45;100.00
78671;BME280;68277;52.724;6.516;2024-01-25T11:04:17;102846.09;;;6.51;100.00
78671;BME280;68277;52.724;6.516;2024-01-25T11:06:46;102820.66;;;6.50;100.00
78671;BME280;68277;52.724;6.516;2024-01-25T11:09:20;102837.50;;;6.58;100.00
78671;BME280;68277;52.724;6.516;2024-01-25T11:11:53;102836.44;;;6.50;100.00
78671;BME280;68277;52.724;6.516;2024-01-25T11:14:19;102844.56;;;6.59;100.00
78671;BME280;68277;52.724;6.516;2024-01-25T11:16:45;102813.38;;;6.40;100.00
78671;BME280;68277;52.724;6.516;2024-01-25T11:19:19;102837.41;;;6.53;100.00
78671;BME280;68277;52.724;6.516;2024-01-25T11:21:47;102855.13;;;6.60;100.00
78671;BME280;68277;52.724;6.516;2024-01-25T11:24:23;102844.81;;;6.68;100.00
78671;BME280;68277;52.724;6.516;2024-01-25T11:26:53;102835.28;;;6.73;100.00
78671;BME280;68277;52.724;6.516;2024-01-25T11:29:20;102803.59;;;6.68;100.00
78671;BME280;68277;52.724;6.516;2024-01-25T11:31:49;102796.94;;;6.82;100.00
78671;BME280;68277;52.724;6.516;2024-01-25T11:34:15;102805.34;;;7.05;100.00
78671;BME280;68277;52.724;6.516;2024-01-25T11:36:42;102754.31;;;6.99;100.00
78671;BME280;68277;52.724;6.516;2024-01-25T11:39:08;102821.13;;;7.42;100.00
78671;BME280;68277;52.724;6.516;2024-01-25T11:41:35;102794.50;;;7.29;100.00
78671;BME280;68277;52.724;6.516;2024-01-25T11:44:01;102727.19;;;7.01;100.00
78671;BME280;68277;52.724;6.516;2024-01-25T11:46:27;102809.22;;;7.59;100.00
78671;BME280;68277;52.724;6.516;2024-01-25T11:48:54;102766.63;;;7.40;100.00
78671;BME280;68277;52.724;6.516;2024-01-25T11:51:19;102763.22;;;7.44;100.00
78671;BME280;68277;52.724;6.516;2024-01-25T11:53:45;102731.16;;;7.23;100.00
78671;BME280;68277;52.724;6.516;2024-01-25T11:56:14;102691.34;;;7.08;100.00
78671;BME280;68277;52.724;6.516;2024-01-25T11:58:43;102753.66;;;7.49;100.00
78671;BME280;68277;52.724;6.516;2024-01-25T12:01:11;102713.66;;;7.25;100.00
78671;BME280;68277;52.724;6.516;2024-01-25T12:03:37;102714.53;;;7.25;100.00
78671;BME280;68277;52.724;6.516;2024-01-25T12:06:04;102622.19;;;6.76;100.00
78671;BME280;68277;52.724;6.516;2024-01-25T12:08:32;102744.91;;;7.50;100.00
78671;BME280;68277;52.724;6.516;2024-01-25T12:11:11;102755.53;;;7.54;100.00
78671;BME280;68277;52.724;6.516;2024-01-25T12:13:41;102694.09;;;7.14;100.00
78671;BME280;68277;52.724;6.516;2024-01-25T12:16:08;102713.75;;;7.29;100.00
78671;BME280;68277;52.724;6.516;2024-01-25T12:18:34;102677.38;;;7.12;100.00
78671;BME280;68277;52.724;6.516;2024-01-25T12:21:03;102696.88;;;7.20;100.00
78671;BME280;68277;52.724;6.516;2024-01-25T12:23:36;102751.06;;;7.50;100.00
78671;BME280;68277;52.724;6.516;2024-01-25T12:26:06;102677.31;;;7.09;100.00
78671;BME280;68277;52.724;6.516;2024-01-25T12:28:32;102696.72;;;7.14;100.00
78671;BME280;68277;52.724;6.516;2024-01-25T12:31:00;102639.78;;;6.78;100.00
78671;BME280;68277;52.724;6.516;2024-01-25T12:33:27;102635.50;;;6.80;100.00
78671;BME280;68277;52.724;6.516;2024-01-25T12:35:53;102703.78;;;7.16;100.00
78671;BME280;68277;52.724;6.516;2024-01-25T12:38:21;102756.28;;;7.49;100.00
78671;BME280;68277;52.724;6.516;2024-01-25T12:40:48;102729.81;;;7.41;100.00
78671;BME280;68277;52.724;6.516;2024-01-25T12:43:15;102721.91;;;7.43;100.00
78671;BME280;68277;52.724;6.516;2024-01-25T12:45:41;102697.31;;;7.42;100.00
78671;BME280;68277;52.724;6.516;2024-01-25T12:48:07;102741.97;;;7.80;100.00
78671;BME280;68277;52.724;6.516;2024-01-25T12:50:34;102669.41;;;7.50;100.00
78671;BME280;68277;52.724;6.516;2024-01-25T12:53:00;102715.06;;;7.96;100.00
78671;BME280;68277;52.724;6.516;2024-01-25T12:55:30;102714.47;;;8.13;100.00
78671;BME280;68277;52.724;6.516;2024-01-25T12:57:58;102679.22;;;8.07;100.00
78671;BME280;68277;52.724;6.516;2024-01-25T13:00:23;102702.31;;;8.21;100.00
78671;BME280;68277;52.724;6.516;2024-01-25T13:02:49;102728.16;;;8.39;100.00
78671;BME280;68277;52.724;6.516;2024-01-25T13:05:15;102641.25;;;7.97;100.00
78671;BME280;68277;52.724;6.516;2024-01-25T13:07:41;102678.53;;;8.20;100.00